Elizaville, Kentucky
Current Conditions -  °F | °C
As of 11:35 PM on Friday 24 Oct 2014 (Local Time) from KFGX Reporting Station
Clear Clear  
Wind Chill: 48°   Ceiling: Unl
Heat Index: 50°   Visibility: 10mi
Dew Point: 40°   Wind: 6mph
Humidity: 69%   Direction: 210°SSW
Pressure: 30.07"   Gusts: NA
Location:  38.42°N, 83.83°W
Report Text: KFGX 250335Z AUTO 21005KT 10SM CLR 10/04 A3007 RMK AO2 T00990044
Loading
Personal Weather Stations






























Interactive Weather Map
Tropical Storm Tracking
New forecast layout! Learn more

10-Day Weather Forecast

Advertisements
Track Severe Weather on mobile